< < Back
Terminal Aerodrome Forecast


Current Version              Previous Versions:   1  2  3  4  5  6  7  8  9  

Terminal Aerodrome Forecast

539
FTUS42 KMLB 062109 AAA
TAFMCO
TAF AMD
KMCO 062109Z 0621/0718 01009KT P6SM -RA FEW015 OVC080
      TEMPO 0621/0624 3SM RA BR BKN015
     FM070000 34012KT P6SM BKN020
      TEMPO 0700/0702 5SM SHRA BKN012
     FM070300 32014G21KT P6SM VCSH BKN012
     FM070800 32018G26KT P6SM BKN010
     FM071500 32022G32KT P6SM FEW015 BKN030=



Latest METAR

719
SAUS70 KWBC 071000 RRF
MTRMCO
METAR KMCO 070953Z 30014G22KT 10SM BKN007 OVC013 07/06 A2996 RMK AO2
SLP146 T00720056 $


USA.gov is the U.S. government's official web portal to all federal, state and local government web resources and services.